Time;durP1;ratioP1;P1;durP2;ratioP2;P2;SDS_P1;SDS_P2;PMS_P1;PMS_P2;Temp;Humidity;BMP_temperature;BMP_pressure;BME280_temperature;BME280_humidity;BME280_pressure;Samples;Min_cycle;Max_cycle;Signal;HPM_P1;HPM_P2
2021/12/03 00:02:15;;;;;;;18.00;8.65;;;0.90;99.90;;;;;;4997483;28;20458;-52
2021/12/03 00:04:41;;;;;;;18.10;8.65;;;0.90;99.90;;;;;;5008290;28;20040;-52
2021/12/03 00:07:07;;;;;;;13.23;7.65;;;1.00;99.90;;;;;;4996283;28;20124;-55
2021/12/03 00:09:35;;;;;;;14.52;7.90;;;1.00;99.90;;;;;;4998828;28;20027;-54
2021/12/03 00:12:02;;;;;;;13.25;8.00;;;1.00;99.90;;;;;;4997562;28;20034;-55
2021/12/03 00:14:28;;;;;;;12.75;7.55;;;1.00;99.90;;;;;;5001261;28;20037;-54
2021/12/03 00:16:54;;;;;;;16.88;8.25;;;1.00;99.90;;;;;;5001863;28;20723;-54
2021/12/03 00:19:19;;;;;;;13.77;7.45;;;1.00;99.90;;;;;;4988101;28;20088;-53
2021/12/03 00:21:45;;;;;;;17.27;7.90;;;1.00;99.90;;;;;;5001464;28;20026;-53
2021/12/03 00:24:11;;;;;;;14.95;8.20;;;1.00;99.90;;;;;;5006117;28;20075;-55
2021/12/03 00:26:37;;;;;;;14.40;8.27;;;0.90;99.90;;;;;;5000046;28;20077;-55
2021/12/03 00:29:03;;;;;;;15.80;8.43;;;0.90;99.90;;;;;;5003688;28;20033;-55
2021/12/03 00:31:29;;;;;;;13.68;8.48;;;0.80;99.90;;;;;;5001350;28;20109;-53
2021/12/03 00:33:55;;;;;;;15.60;7.93;;;0.80;99.90;;;;;;4991396;28;20121;-53
2021/12/03 00:36:20;;;;;;;15.27;8.25;;;0.80;99.90;;;;;;5001126;28;20057;-55
2021/12/03 00:38:50;;;;;;;11.65;7.07;;;0.80;99.90;;;;;;4997598;28;20570;-53
2021/12/03 00:41:19;;;;;;;15.50;8.30;;;0.80;99.90;;;;;;5001050;28;20030;-53
2021/12/03 00:43:47;;;;;;;16.88;8.05;;;0.80;99.90;;;;;;5003069;28;20035;-52
2021/12/03 00:46:16;;;;;;;14.27;7.55;;;0.80;99.90;;;;;;5004523;28;20427;-54
2021/12/03 00:48:44;;;;;;;13.45;6.90;;;0.80;99.90;;;;;;5003066;28;20125;-53
2021/12/03 00:51:11;;;;;;;16.90;7.75;;;0.80;99.90;;;;;;5006679;28;20022;-52
2021/12/03 00:53:38;;;;;;;14.82;7.68;;;0.80;99.90;;;;;;4997448;28;20038;-52
2021/12/03 00:56:04;;;;;;;12.40;6.30;;;0.90;99.90;;;;;;5006704;28;20057;-52
2021/12/03 00:58:30;;;;;;;10.75;6.90;;;1.00;99.90;;;;;;5002045;28;20109;-53
2021/12/03 01:00:56;;;;;;;12.75;5.65;;;1.00;99.90;;;;;;5007653;28;20125;-53
2021/12/03 01:03:22;;;;;;;12.57;6.10;;;1.10;99.90;;;;;;5001433;28;20042;-54
2021/12/03 01:05:48;;;;;;;13.10;5.93;;;1.00;99.90;;;;;;5003210;28;20034;-54
2021/12/03 01:08:13;;;;;;;12.25;5.88;;;0.90;99.90;;;;;;5007429;28;20068;-52
2021/12/03 01:10:39;;;;;;;14.18;5.50;;;0.90;99.90;;;;;;5003867;28;20197;-52
2021/12/03 01:13:05;;;;;;;10.50;5.00;;;0.90;99.90;;;;;;5000837;28;20166;-52
2021/12/03 01:15:33;;;;;;;17.58;5.60;;;0.90;99.90;;;;;;5001529;28;20476;-59
2021/12/03 01:18:00;;;;;;;10.77;4.60;;;0.90;99.90;;;;;;5005970;28;20033;-53
2021/12/03 01:20:26;;;;;;;9.35;4.47;;;0.90;99.90;;;;;;5004534;28;20033;-51
2021/12/03 01:22:54;;;;;;;10.45;4.93;;;0.90;99.90;;;;;;4992063;28;20485;-52
2021/12/03 01:25:21;;;;;;;12.65;5.15;;;0.90;99.90;;;;;;4999686;28;20037;-53
2021/12/03 01:27:48;;;;;;;10.20;5.18;;;0.90;99.90;;;;;;4996207;28;20038;-53
2021/12/03 01:30:18;;;;;;;11.93;5.75;;;0.90;99.90;;;;;;4999799;28;20023;-54
2021/12/03 01:32:45;;;;;;;13.43;6.18;;;0.90;99.90;;;;;;5012092;28;20125;-51
2021/12/03 01:35:12;;;;;;;12.65;6.43;;;0.90;99.90;;;;;;5000250;28;20058;-52
2021/12/03 01:37:38;;;;;;;14.80;7.18;;;0.80;99.90;;;;;;5010999;28;20476;-52
2021/12/03 01:40:06;;;;;;;17.85;7.28;;;0.80;99.90;;;;;;4998514;28;20042;-52
2021/12/03 01:42:32;;;;;;;14.27;7.30;;;0.80;99.90;;;;;;4984301;28;20031;-51
2021/12/03 01:44:57;;;;;;;11.70;6.85;;;0.80;99.90;;;;;;4994474;28;20014;-54
2021/12/03 01:47:23;;;;;;;17.48;8.00;;;0.80;99.90;;;;;;4985205;28;20030;-52
2021/12/03 01:49:49;;;;;;;14.93;7.75;;;0.80;99.90;;;;;;4984324;28;20535;-53
2021/12/03 01:52:15;;;;;;;16.45;8.13;;;0.80;99.90;;;;;;4992936;28;20089;-54
2021/12/03 01:54:41;;;;;;;16.80;7.85;;;0.80;99.90;;;;;;4999958;28;20030;-53
2021/12/03 01:57:07;;;;;;;14.32;7.53;;;0.80;99.90;;;;;;4994111;28;20518;-53
2021/12/03 01:59:32;;;;;;;14.93;8.18;;;0.80;99.90;;;;;;4990985;28;20034;-52
2021/12/03 02:01:58;;;;;;;14.00;8.18;;;0.70;99.90;;;;;;4992800;28;20030;-53
2021/12/03 02:04:25;;;;;;;25.27;8.55;;;0.70;99.90;;;;;;4997736;28;20041;-52
2021/12/03 02:06:50;;;;;;;14.45;8.18;;;0.70;99.90;;;;;;4987669;28;20097;-54
2021/12/03 02:09:16;;;;;;;19.75;8.77;;;0.70;99.90;;;;;;4996622;28;20456;-54
2021/12/03 02:11:42;;;;;;;17.13;8.80;;;0.70;99.90;;;;;;4987227;28;20084;-53
2021/12/03 02:14:08;;;;;;;14.82;8.55;;;0.60;99.90;;;;;;4994809;28;20159;-54
2021/12/03 02:16:34;;;;;;;14.65;8.70;;;0.60;99.90;;;;;;4982031;28;20117;-52
2021/12/03 02:19:00;;;;;;;15.65;8.50;;;0.70;99.90;;;;;;4997562;28;20130;-54
2021/12/03 02:21:26;;;;;;;19.60;8.75;;;0.60;99.90;;;;;;4984399;28;20034;-52
2021/12/03 02:23:52;;;;;;;17.30;8.85;;;0.60;99.90;;;;;;4993959;28;20111;-51
2021/12/03 02:26:19;;;;;;;18.83;9.13;;;0.60;99.90;;;;;;4987301;28;20441;-51
2021/12/03 02:28:47;;;;;;;18.23;9.45;;;0.60;99.90;;;;;;5001379;28;20065;-52
2021/12/03 02:31:16;;;;;;;16.48;9.70;;;0.60;99.90;;;;;;4980244;28;20508;-53
2021/12/03 02:33:42;;;;;;;17.80;10.40;;;0.60;99.90;;;;;;4979175;28;20066;-52
2021/12/03 02:36:08;;;;;;;17.77;9.57;;;0.60;99.90;;;;;;4975176;28;20027;-52
2021/12/03 02:38:34;;;;;;;20.63;9.77;;;0.60;99.90;;;;;;4998069;28;20045;-52
2021/12/03 02:41:00;;;;;;;16.30;8.88;;;0.60;99.90;;;;;;4996124;28;20041;-52
2021/12/03 02:43:26;;;;;;;17.15;9.77;;;0.70;99.90;;;;;;4996095;28;20027;-51
2021/12/03 02:45:52;;;;;;;16.15;8.38;;;0.70;99.90;;;;;;4990669;28;20029;-51
2021/12/03 02:48:21;;;;;;;16.58;8.13;;;0.80;99.90;;;;;;5000085;28;20061;-52
2021/12/03 02:50:47;;;;;;;14.48;7.57;;;0.70;99.90;;;;;;4997975;28;20426;-51
2021/12/03 02:53:13;;;;;;;10.45;6.75;;;0.80;99.90;;;;;;4985308;28;20126;-52
2021/12/03 02:55:39;;;;;;;12.20;7.30;;;0.80;99.90;;;;;;4991025;28;20027;-51
2021/12/03 02:58:06;;;;;;;11.20;7.20;;;0.90;99.90;;;;;;4979487;28;20031;-52
2021/12/03 03:00:32;;;;;;;13.98;7.50;;;1.00;99.90;;;;;;4999545;28;20094;-52
2021/12/03 03:02:58;;;;;;;11.45;7.25;;;1.00;99.90;;;;;;4979426;28;20030;-53
2021/12/03 03:05:25;;;;;;;11.73;7.00;;;1.00;99.90;;;;;;4996067;28;20479;-55
2021/12/03 03:07:52;;;;;;;13.95;6.47;;;1.00;99.90;;;;;;4976100;28;20034;-54
2021/12/03 03:10:25;;;;;;;13.30;6.82;;;1.00;99.90;;;;;;4990542;28;20062;-51
2021/12/03 03:12:52;;;;;;;11.60;7.03;;;1.00;99.90;;;;;;4978930;28;20490;-53
2021/12/03 03:15:18;;;;;;;14.60;7.60;;;1.10;99.90;;;;;;4994999;28;20041;-51
2021/12/03 03:17:44;;;;;;;15.18;6.95;;;1.10;99.90;;;;;;4988800;28;20408;-51
2021/12/03 03:20:10;;;;;;;12.15;6.05;;;1.10;99.90;;;;;;4996389;28;20062;-52
2021/12/03 03:22:38;;;;;;;11.05;7.15;;;1.10;99.90;;;;;;4992460;28;20085;-52
2021/12/03 03:25:06;;;;;;;10.13;6.95;;;1.20;99.90;;;;;;4997645;28;20032;-51
2021/12/03 03:27:32;;;;;;;11.43;7.15;;;1.10;99.90;;;;;;4973030;28;20050;-51
2021/12/03 03:29:59;;;;;;;12.02;6.78;;;1.20;99.90;;;;;;4982026;28;20031;-52
2021/12/03 03:32:25;;;;;;;11.80;7.30;;;1.10;99.90;;;;;;4996124;28;20026;-53
2021/12/03 03:34:51;;;;;;;15.57;7.75;;;1.00;99.90;;;;;;4983656;28;20049;-54
2021/12/03 03:37:17;;;;;;;10.95;7.03;;;1.00;99.90;;;;;;4990581;28;20415;-52
2021/12/03 03:39:44;;;;;;;13.63;7.88;;;1.00;99.90;;;;;;4984488;28;20037;-52
2021/12/03 03:42:10;;;;;;;12.55;7.55;;;1.00;99.90;;;;;;4992639;28;20106;-51
2021/12/03 03:44:36;;;;;;;14.15;8.32;;;1.00;99.90;;;;;;4990475;28;20124;-50
2021/12/03 03:47:04;;;;;;;14.55;8.18;;;0.90;99.90;;;;;;4997049;28;20487;-55
2021/12/03 03:49:30;;;;;;;17.38;8.32;;;0.90;99.90;;;;;;4994863;28;20034;-51
2021/12/03 03:51:57;;;;;;;14.80;8.35;;;0.90;99.90;;;;;;4988185;28;21950;-51
2021/12/03 03:54:23;;;;;;;19.77;8.25;;;0.90;99.90;;;;;;4990724;28;20023;-52
2021/12/03 03:56:48;;;;;;;14.15;8.00;;;0.90;99.90;;;;;;4982581;28;20019;-51
2021/12/03 03:59:17;;;;;;;13.55;8.00;;;0.90;99.90;;;;;;5000023;28;20041;-51
2021/12/03 04:01:53;;;;;;;15.40;7.97;;;0.90;99.90;;;;;;4987233;28;20031;-53
2021/12/03 04:04:21;;;;;;;17.80;8.35;;;0.90;99.90;;;;;;4989971;28;20030;-51
2021/12/03 04:06:47;;;;;;;15.40;8.88;;;0.90;99.90;;;;;;5002166;28;20025;-54
2021/12/03 04:09:13;;;;;;;12.40;8.23;;;0.80;99.90;;;;;;4993845;28;20029;-54
2021/12/03 04:11:38;;;;;;;14.68;8.40;;;0.80;99.90;;;;;;4978085;28;20113;-51
2021/12/03 04:14:04;;;;;;;18.40;9.73;;;0.90;99.90;;;;;;4999006;28;20022;-53
2021/12/03 04:16:31;;;;;;;19.23;9.07;;;0.90;99.90;;;;;;4997680;28;20487;-52
2021/12/03 04:18:57;;;;;;;15.73;9.30;;;0.90;99.90;;;;;;4986625;28;20038;-52
2021/12/03 04:21:24;;;;;;;13.73;7.95;;;1.00;99.90;;;;;;4980446;28;20026;-52
2021/12/03 04:23:51;;;;;;;14.00;9.10;;;0.90;99.90;;;;;;4994369;28;20090;-52
2021/12/03 04:26:17;;;;;;;17.02;9.20;;;0.90;99.90;;;;;;4987349;28;20026;-54
2021/12/03 04:28:42;;;;;;;15.65;8.68;;;0.90;99.90;;;;;;4991095;28;20037;-52
2021/12/03 04:31:08;;;;;;;14.40;8.57;;;0.80;99.90;;;;;;4985707;28;20029;-52
2021/12/03 04:33:34;;;;;;;16.27;9.02;;;0.80;99.90;;;;;;4986970;28;20122;-52
2021/12/03 04:36:00;;;;;;;15.27;9.70;;;0.80;99.90;;;;;;4987215;28;20042;-54
2021/12/03 04:38:26;;;;;;;13.30;8.68;;;0.80;99.90;;;;;;4987531;28;20299;-52
2021/12/03 04:40:51;;;;;;;14.93;8.95;;;0.80;99.90;;;;;;4996980;28;20069;-55
2021/12/03 04:43:18;;;;;;;15.10;9.38;;;0.80;99.90;;;;;;4986794;28;20034;-53
2021/12/03 04:45:44;;;;;;;14.93;8.75;;;0.80;99.90;;;;;;4995154;28;20033;-52
2021/12/03 04:48:09;;;;;;;16.60;9.05;;;0.80;99.90;;;;;;4980934;28;20126;-51
2021/12/03 04:50:38;;;;;;;15.20;8.88;;;0.80;99.90;;;;;;4988109;28;20067;-53
2021/12/03 04:53:05;;;;;;;17.40;9.90;;;0.80;99.90;;;;;;4991424;28;20030;-52
2021/12/03 04:55:32;;;;;;;14.27;8.65;;;0.80;99.90;;;;;;4979400;28;20089;-52
2021/12/03 04:57:57;;;;;;;12.95;8.63;;;0.80;99.90;;;;;;4994588;28;20044;-53
2021/12/03 05:00:31;;;;;;;17.45;8.57;;;0.80;99.90;;;;;;4988340;28;20481;-52
2021/12/03 05:02:57;;;;;;;17.30;9.32;;;0.80;99.90;;;;;;4982482;28;20045;-54
2021/12/03 05:05:25;;;;;;;15.73;8.80;;;0.80;99.90;;;;;;4994772;28;20118;-52
2021/12/03 05:07:57;;;;;;;17.77;9.05;;;0.90;99.90;;;;;;4996726;28;20041;-53
2021/12/03 05:10:34;;;;;;;18.33;8.80;;;0.90;99.90;;;;;;4985067;28;20031;-53
2021/12/03 05:13:30;;;;;;;17.20;8.73;;;0.90;99.90;;;;;;4996325;28;20041;-52
2021/12/03 05:15:57;;;;;;;14.77;9.40;;;0.90;99.90;;;;;;4983160;28;20061;-53
2021/12/03 05:18:25;;;;;;;17.48;8.95;;;1.00;99.90;;;;;;4988072;28;20400;-53
2021/12/03 05:20:52;;;;;;;18.02;8.77;;;1.00;99.90;;;;;;4989972;28;20038;-54
2021/12/03 05:23:20;;;;;;;11.85;8.45;;;1.00;99.90;;;;;;4995412;28;20368;-55
2021/12/03 05:25:46;;;;;;;17.30;8.85;;;1.00;99.90;;;;;;4992639;28;20038;-55
2021/12/03 05:28:12;;;;;;;16.67;8.85;;;1.00;99.90;;;;;;4985777;28;20389;-52
2021/12/03 05:30:38;;;;;;;14.07;9.10;;;1.00;99.90;;;;;;4992716;28;20035;-52
2021/12/03 05:33:06;;;;;;;18.25;9.60;;;1.00;99.90;;;;;;4984670;28;20039;-52
2021/12/03 05:35:32;;;;;;;21.25;9.73;;;1.00;99.90;;;;;;4991069;28;20030;-53
2021/12/03 05:37:58;;;;;;;17.33;10.00;;;1.00;99.90;;;;;;4998498;28;20019;-55
2021/12/03 05:40:24;;;;;;;18.67;9.80;;;0.90;99.90;;;;;;4995757;28;20030;-53
2021/12/03 05:42:50;;;;;;;22.80;10.23;;;1.00;99.90;;;;;;5012848;28;20030;-53
2021/12/03 05:45:25;;;;;;;17.17;10.23;;;1.00;99.90;;;;;;5003365;28;20030;-55
2021/12/03 05:47:52;;;;;;;21.10;10.82;;;1.00;99.90;;;;;;4987347;28;20040;-54
2021/12/03 05:50:19;;;;;;;19.27;11.05;;;1.00;99.90;;;;;;5002412;28;20050;-55
2021/12/03 05:52:46;;;;;;;20.70;10.30;;;1.00;99.90;;;;;;4990263;28;20026;-52
2021/12/03 05:55:13;;;;;;;18.23;10.85;;;1.00;99.90;;;;;;4995701;28;20015;-54
2021/12/03 05:57:40;;;;;;;21.02;11.85;;;1.00;99.90;;;;;;5004245;28;20100;-56
2021/12/03 06:00:10;;;;;;;18.20;11.57;;;1.00;99.90;;;;;;5003379;28;20033;-53
2021/12/03 06:02:35;;;;;;;17.55;10.38;;;1.00;99.90;;;;;;4989076;28;20048;-60
2021/12/03 06:05:01;;;;;;;19.98;9.95;;;1.10;99.90;;;;;;5000250;28;20446;-59
2021/12/03 06:07:26;;;;;;;16.10;9.40;;;1.30;99.90;;;;;;4992470;28;20048;-55
2021/12/03 06:09:52;;;;;;;14.70;9.70;;;1.30;99.90;;;;;;4979639;28;20125;-59
2021/12/03 06:12:18;;;;;;;22.98;10.45;;;1.40;99.90;;;;;;4996841;28;20029;-56
2021/12/03 06:14:43;;;;;;;12.75;8.70;;;1.40;99.90;;;;;;4977317;28;20497;-57
2021/12/03 06:17:12;;;;;;;20.58;9.48;;;1.40;99.90;;;;;;4997127;28;20030;-56
2021/12/03 06:19:39;;;;;;;12.98;8.10;;;1.40;99.90;;;;;;4998453;28;20590;-56
2021/12/03 06:22:05;;;;;;;19.80;9.05;;;1.30;99.90;;;;;;4997953;28;20015;-57
2021/12/03 06:24:30;;;;;;;16.38;8.85;;;1.40;99.90;;;;;;5003882;28;20037;-61
2021/12/03 06:26:56;;;;;;;17.08;9.05;;;1.30;99.90;;;;;;5007371;28;20030;-54
2021/12/03 06:29:21;;;;;;;18.48;9.65;;;1.30;99.90;;;;;;4996668;28;20045;-60
2021/12/03 06:31:47;;;;;;;17.13;9.32;;;1.40;99.90;;;;;;5000427;28;20042;-58
2021/12/03 06:34:13;;;;;;;17.33;9.20;;;1.30;99.90;;;;;;4991866;28;20484;-59
2021/12/03 06:36:38;;;;;;;18.13;9.75;;;1.40;99.90;;;;;;4994392;28;20488;-58
2021/12/03 06:39:04;;;;;;;18.73;9.90;;;1.30;99.90;;;;;;4987902;28;20058;-55
2021/12/03 06:41:30;;;;;;;19.35;10.60;;;1.30;99.90;;;;;;5004183;28;20476;-56
2021/12/03 06:43:57;;;;;;;17.35;9.90;;;1.20;99.90;;;;;;5002178;28;20031;-55
2021/12/03 06:46:23;;;;;;;20.95;10.90;;;1.20;99.90;;;;;;4988888;28;20030;-56
2021/12/03 06:48:48;;;;;;;17.45;10.45;;;1.20;99.90;;;;;;4984524;28;20053;-57
2021/12/03 06:51:14;;;;;;;22.40;10.82;;;1.10;99.90;;;;;;4985470;28;20389;-56
2021/12/03 06:53:43;;;;;;;17.67;10.57;;;1.10;99.90;;;;;;4983121;28;20035;-58
2021/12/03 06:56:19;;;;;;;19.55;10.93;;;1.10;99.90;;;;;;4994438;28;20368;-55
2021/12/03 06:58:44;;;;;;;19.77;11.00;;;1.10;99.90;;;;;;5002320;28;20041;-53
2021/12/03 07:01:10;;;;;;;19.20;11.00;;;1.10;99.90;;;;;;4988489;28;20425;-56
2021/12/03 07:03:35;;;;;;;22.45;10.63;;;1.20;99.90;;;;;;4989500;28;20030;-55
2021/12/03 07:06:01;;;;;;;20.35;9.70;;;1.20;99.90;;;;;;4990141;28;20407;-55
2021/12/03 07:08:27;;;;;;;17.90;10.07;;;1.20;99.90;;;;;;4998495;28;20039;-55
2021/12/03 07:10:52;;;;;;;16.55;10.55;;;1.20;99.90;;;;;;5002804;28;20488;-56
2021/12/03 07:13:18;;;;;;;15.52;10.38;;;1.10;99.90;;;;;;5005425;28;20089;-57
2021/12/03 07:15:43;;;;;;;18.20;11.27;;;1.10;99.90;;;;;;4997874;28;20508;-56
2021/12/03 07:18:09;;;;;;;18.52;10.40;;;1.10;99.90;;;;;;4989429;28;20530;-54
2021/12/03 07:20:35;;;;;;;24.95;10.90;;;1.10;99.90;;;;;;4998140;28;20034;-52
2021/12/03 07:23:00;;;;;;;19.63;11.07;;;1.20;99.90;;;;;;4998629;28;20057;-56
2021/12/03 07:25:26;;;;;;;25.38;11.63;;;1.10;99.90;;;;;;4999416;28;20038;-53
2021/12/03 07:27:53;;;;;;;22.58;11.65;;;1.10;99.90;;;;;;4994906;28;20038;-56
2021/12/03 07:30:20;;;;;;;17.65;11.07;;;1.10;99.90;;;;;;4998784;28;20515;-55
2021/12/03 07:32:46;;;;;;;17.17;11.48;;;1.10;99.90;;;;;;4994614;28;20033;-56
2021/12/03 07:35:12;;;;;;;20.25;11.75;;;1.10;99.90;;;;;;4994479;28;20042;-55
2021/12/03 07:37:39;;;;;;;17.88;11.50;;;1.10;99.90;;;;;;4998660;28;20088;-57
2021/12/03 07:40:06;;;;;;;21.00;12.18;;;1.10;99.90;;;;;;4988929;28;20076;-55
2021/12/03 07:42:33;;;;;;;27.90;12.45;;;1.10;99.90;;;;;;4996792;28;20049;-55
2021/12/03 07:44:59;;;;;;;22.85;11.77;;;1.10;99.90;;;;;;4996696;28;20045;-55
2021/12/03 07:47:25;;;;;;;18.35;11.43;;;1.10;99.90;;;;;;5007303;28;20112;-56
2021/12/03 07:49:52;;;;;;;21.80;12.00;;;1.10;99.90;;;;;;5009815;28;20417;-57
2021/12/03 07:52:20;;;;;;;23.27;11.63;;;1.20;99.90;;;;;;5010454;28;20018;-55
2021/12/03 07:54:46;;;;;;;22.17;10.52;;;1.20;99.90;;;;;;5010358;28;20030;-60
2021/12/03 07:57:12;;;;;;;21.13;10.27;;;1.20;99.90;;;;;;5008524;28;20037;-57
2021/12/03 07:59:38;;;;;;;20.20;11.48;;;1.20;99.90;;;;;;5008411;28;20467;-55
2021/12/03 08:02:04;;;;;;;19.48;10.50;;;1.20;99.90;;;;;;5010042;28;20026;-54
2021/12/03 08:04:30;;;;;;;20.02;10.00;;;1.20;99.90;;;;;;5008903;28;20482;-60
2021/12/03 08:06:55;;;;;;;19.33;10.43;;;1.20;99.90;;;;;;5009966;28;20555;-59
2021/12/03 08:09:22;;;;;;;16.95;10.55;;;1.30;99.90;;;;;;5010137;28;20440;-60
2021/12/03 08:11:48;;;;;;;20.38;10.98;;;1.30;99.90;;;;;;5010023;28;20104;-60
2021/12/03 08:14:14;;;;;;;14.70;9.15;;;1.30;99.90;;;;;;5009704;28;20034;-60
2021/12/03 08:16:40;;;;;;;15.23;10.20;;;1.30;99.90;;;;;;5010247;28;20392;-60
2021/12/03 08:19:06;;;;;;;18.45;10.65;;;1.30;99.90;;;;;;5009201;28;20041;-57
2021/12/03 08:21:32;;;;;;;20.25;10.27;;;1.30;99.90;;;;;;5010154;28;20036;-59
2021/12/03 08:24:00;;;;;;;21.48;9.82;;;1.30;99.90;;;;;;5009682;28;20076;-53
2021/12/03 08:26:27;;;;;;;17.60;10.40;;;1.40;99.90;;;;;;5008808;28;20037;-55
2021/12/03 08:28:53;;;;;;;25.13;11.10;;;1.40;99.90;;;;;;5009145;28;20026;-58
2021/12/03 08:31:18;;;;;;;18.63;11.02;;;1.40;99.90;;;;;;5009717;28;20030;-58
2021/12/03 08:33:45;;;;;;;17.85;10.90;;;1.40;99.90;;;;;;5009806;28;20037;-54
2021/12/03 08:36:11;;;;;;;19.52;11.30;;;1.40;99.90;;;;;;5009560;28;20026;-56
2021/12/03 08:38:37;;;;;;;24.92;13.30;;;1.40;99.90;;;;;;5007980;28;20403;-56
2021/12/03 08:41:04;;;;;;;21.77;12.02;;;1.40;99.90;;;;;;5009443;28;20026;-58
2021/12/03 08:43:30;;;;;;;24.67;12.48;;;1.40;99.90;;;;;;5009931;28;20034;-57
2021/12/03 08:45:56;;;;;;;25.63;13.77;;;1.50;99.90;;;;;;5009800;28;20451;-61
2021/12/03 08:48:23;;;;;;;21.80;12.55;;;1.50;99.90;;;;;;5009165;28;20030;-58
2021/12/03 08:51:10;;;;;;;28.13;14.20;;;1.50;99.90;;;;;;5009748;28;20540;-60
2021/12/03 08:56:20;;;;;;;24.30;15.48;;;1.50;99.90;;;;;;5009014;28;20048;-59
2021/12/03 08:58:46;;;;;;;28.95;15.13;;;1.50;99.90;;;;;;5009143;28;20038;-59
2021/12/03 09:01:13;;;;;;;30.40;17.15;;;1.60;99.90;;;;;;5009325;28;20030;-60
2021/12/03 09:03:39;;;;;;;32.42;16.90;;;1.70;99.90;;;;;;5008395;28;20065;-57
2021/12/03 09:06:05;;;;;;;28.75;15.60;;;1.70;99.90;;;;;;5009076;28;20072;-57
2021/12/03 09:08:30;;;;;;;32.63;17.08;;;1.70;99.90;;;;;;5008960;28;20571;-57
2021/12/03 09:10:56;;;;;;;35.78;18.33;;;1.80;99.90;;;;;;5009324;28;20085;-59
2021/12/03 09:13:22;;;;;;;28.67;17.73;;;1.80;99.90;;;;;;5012575;28;20455;-60
2021/12/03 09:15:55;;;;;;;34.05;18.85;;;1.80;99.90;;;;;;5013066;28;20018;-59
2021/12/03 09:18:35;;;;;;;33.88;18.50;;;1.90;99.90;;;;;;5012214;28;20061;-61
2021/12/03 09:26:05;;;;;;;34.92;19.92;;;2.00;99.90;;;;;;5012937;28;20034;-60
2021/12/03 09:28:32;;;;;;;37.17;18.92;;;2.00;99.90;;;;;;5012529;28;20418;-61
2021/12/03 09:30:57;;;;;;;30.90;19.98;;;2.00;99.90;;;;;;5012968;28;20144;-59
2021/12/03 09:33:27;;;;;;;40.25;18.65;;;2.20;99.90;;;;;;5012549;28;20109;-61
2021/12/03 09:35:56;;;;;;;36.50;22.05;;;2.20;99.90;;;;;;5012669;28;20036;-61
2021/12/03 09:38:24;;;;;;;40.92;20.45;;;2.20;99.90;;;;;;5012303;28;20034;-61
2021/12/03 09:40:50;;;;;;;40.10;21.05;;;2.20;99.90;;;;;;5013203;28;20026;-61
2021/12/03 09:43:15;;;;;;;44.25;21.08;;;2.20;99.90;;;;;;5012797;28;20092;-57
2021/12/03 09:45:51;;;;;;;39.90;20.60;;;2.20;99.90;;;;;;5012710;28;20021;-60
2021/12/03 09:51:18;;;;;;;37.85;20.40;;;2.20;99.90;;;;;;4951871;29;20024;-62
2021/12/03 09:56:30;;;;;;;39.55;19.92;;;2.30;99.90;;;;;;5012725;28;20034;-58
2021/12/03 10:15:00;;;;;;;44.05;20.77;;;2.30;99.90;;;;;;5011832;28;20058;-62
2021/12/03 10:20:22;;;;;;;42.20;20.70;;;2.40;99.90;;;;;;5011402;28;20033;-60
2021/12/03 10:37:03;;;;;;;43.67;20.60;;;2.40;99.90;;;;;;5011464;28;20058;-60
2021/12/03 10:47:12;;;;;;;56.70;23.05;;;2.40;99.90;;;;;;5010354;28;20414;-61
2021/12/03 10:50:01;;;;;;;51.90;23.80;;;2.50;99.90;;;;;;5010945;28;20034;-60
2021/12/03 10:52:40;;;;;;;44.00;23.15;;;2.40;99.90;;;;;;5011542;28;20033;-61
2021/12/03 11:01:56;;;;;;;46.78;23.17;;;2.60;99.90;;;;;;5011483;28;20108;-61
2021/12/03 11:39:06;;;;;;;69.35;28.00;;;2.70;99.90;;;;;;5010327;28;20022;-57
2021/12/03 11:42:08;;;;;;;65.53;26.63;;;2.70;99.90;;;;;;5010784;28;20033;-56
2021/12/03 12:04:13;;;;;;;68.07;27.40;;;2.90;99.90;;;;;;5010462;28;20796;-58
2021/12/03 13:11:21;;;;;;;57.25;22.85;;;3.40;99.90;;;;;;5013705;28;20480;-59
2021/12/03 14:25:24;;;;;;;58.85;24.02;;;3.40;99.90;;;;;;4978069;28;20113;-60
2021/12/03 14:37:14;;;;;;;39.05;14.68;;;3.10;99.90;;;;;;4980475;28;20358;-59
2021/12/03 14:52:55;;;;;;;53.63;21.70;;;3.00;99.90;;;;;;4978077;28;20026;-58
2021/12/03 14:55:26;;;;;;;49.53;20.02;;;2.90;99.90;;;;;;4977409;28;20386;-56
2021/12/03 14:58:13;;;;;;;45.15;19.13;;;3.00;99.90;;;;;;4980797;28;20030;-57
2021/12/03 15:52:37;;;;;;;28.40;13.57;;;2.60;99.90;;;;;;4993728;28;20404;-58
2021/12/03 16:10:44;;;;;;;24.20;11.02;;;2.50;99.90;;;;;;4981501;28;20486;-59
2021/12/03 16:53:30;;;;;;;22.38;11.88;;;2.80;99.90;;;;;;4981984;28;20419;-63
2021/12/03 16:56:14;;;;;;;23.50;11.65;;;2.80;99.90;;;;;;4978281;28;20023;-56
2021/12/03 16:58:41;;;;;;;20.23;11.85;;;2.80;99.90;;;;;;4981741;28;20030;-59
2021/12/03 17:01:14;;;;;;;18.10;11.50;;;2.80;99.90;;;;;;4976162;28;20038;-56
2021/12/03 17:53:29;;;;;;;17.95;10.93;;;2.90;99.90;;;;;;4988283;28;20038;-60
2021/12/03 17:56:15;;;;;;;19.98;11.02;;;2.90;99.90;;;;;;4986580;28;20031;-54
2021/12/03 18:01:28;;;;;;;13.82;9.98;;;2.90;99.90;;;;;;5001535;28;20038;-56
2021/12/03 18:04:12;;;;;;;15.93;10.27;;;3.00;99.90;;;;;;4994245;28;20501;-54
2021/12/03 18:55:30;;;;;;;46.22;29.73;;;3.20;99.90;;;;;;4993596;28;20026;-57
2021/12/03 18:57:31;;;;;;;22.85;14.15;;;3.20;99.90;;;;;;4985358;28;20034;-58
2021/12/03 19:00:01;;;;;;;17.15;12.70;;;3.20;99.90;;;;;;5000392;28;20060;-59
2021/12/03 19:02:28;;;;;;;16.52;11.52;;;3.30;99.90;;;;;;4995847;28;20054;-58
2021/12/03 19:10:29;;;;;;;19.98;13.10;;;3.30;99.90;;;;;;4899802;29;20032;-59
2021/12/03 19:13:02;;;;;;;19.35;14.15;;;3.30;99.90;;;;;;4935266;28;20042;-58
2021/12/03 19:15:29;;;;;;;15.85;11.75;;;3.30;99.90;;;;;;4991449;28;20038;-56
2021/12/03 19:17:57;;;;;;;20.50;14.23;;;3.30;99.90;;;;;;4987811;28;20582;-59
2021/12/03 19:20:27;;;;;;;18.90;12.43;;;3.30;99.90;;;;;;4992086;28;20041;-57
2021/12/03 19:22:53;;;;;;;14.82;11.45;;;3.40;99.90;;;;;;4991287;28;20480;-59
2021/12/03 19:25:19;;;;;;;16.83;12.77;;;3.40;99.90;;;;;;4992716;28;20034;-57
2021/12/03 19:27:44;;;;;;;19.38;13.82;;;3.40;99.90;;;;;;4991454;28;20144;-60
2021/12/03 19:30:11;;;;;;;15.98;11.52;;;3.40;99.90;;;;;;4985152;28;20089;-54
2021/12/03 19:32:38;;;;;;;17.35;12.43;;;3.40;99.90;;;;;;4992708;28;20030;-58
2021/12/03 19:35:05;;;;;;;16.70;12.25;;;3.40;99.90;;;;;;4992258;28;20022;-59
2021/12/03 19:37:31;;;;;;;19.13;13.32;;;3.40;99.90;;;;;;4993933;28;20026;-58
2021/12/03 19:40:00;;;;;;;17.98;12.43;;;3.40;99.90;;;;;;4995477;28;20113;-60
2021/12/03 19:42:32;;;;;;;19.30;13.90;;;3.50;99.90;;;;;;4998228;28;20026;-55
2021/12/03 19:45:03;;;;;;;15.88;12.23;;;3.50;99.90;;;;;;4995576;28;20456;-55
2021/12/03 19:48:05;;;;;;;28.75;20.40;;;3.50;99.90;;;;;;4992415;28;20409;-58
2021/12/03 19:53:31;;;;;;;18.52;12.32;;;3.50;99.90;;;;;;4989319;28;20431;-57
2021/12/03 19:55:48;;;;;;;18.73;13.15;;;3.60;99.90;;;;;;4979283;28;20408;-58
2021/12/03 19:58:14;;;;;;;18.60;13.85;;;3.50;99.90;;;;;;4986210;28;20460;-60
2021/12/03 20:00:41;;;;;;;23.42;18.10;;;3.60;99.90;;;;;;4986084;28;20037;-62
2021/12/03 20:03:10;;;;;;;18.25;13.77;;;3.60;99.90;;;;;;4986377;28;20034;-59
2021/12/03 20:05:37;;;;;;;21.98;15.50;;;3.60;99.90;;;;;;4987779;28;20092;-58
2021/12/03 20:08:04;;;;;;;21.45;15.18;;;3.60;99.90;;;;;;4987805;28;20069;-58
2021/12/03 20:10:33;;;;;;;21.05;15.65;;;3.60;99.90;;;;;;4983860;28;20097;-59
2021/12/03 20:13:00;;;;;;;25.60;17.27;;;3.60;99.90;;;;;;4992787;28;20030;-55
2021/12/03 20:15:42;;;;;;;23.83;16.13;;;3.60;99.90;;;;;;4988455;28;20041;-52
2021/12/03 20:20:49;;;;;;;22.42;16.00;;;3.70;99.90;;;;;;4989653;28;20030;-56
2021/12/03 20:31:13;;;;;;;22.30;16.83;;;3.70;99.90;;;;;;4965185;28;20618;-56
2021/12/03 20:33:55;;;;;;;25.63;17.90;;;3.80;99.90;;;;;;4986173;28;20053;-60
2021/12/03 20:39:25;;;;;;;25.58;18.60;;;3.80;99.90;;;;;;4980944;28;20029;-59
2021/12/03 20:42:01;;;;;;;26.35;18.67;;;3.80;99.90;;;;;;4981937;28;20106;-62
2021/12/03 20:47:37;;;;;;;29.35;20.58;;;3.80;99.90;;;;;;4984820;28;20034;-57
2021/12/03 20:52:43;;;;;;;26.80;18.88;;;3.80;99.90;;;;;;4988371;28;20026;-54
2021/12/03 21:10:57;;;;;;;28.98;21.70;;;3.80;99.90;;;;;;4989630;28;20023;-58
2021/12/03 21:13:27;;;;;;;26.92;20.83;;;3.90;99.90;;;;;;4974495;28;20035;-58
2021/12/03 21:20:59;;;;;;;25.90;18.33;;;3.90;99.90;;;;;;4984065;28;20042;-63
2021/12/03 21:23:27;;;;;;;27.52;20.23;;;3.90;99.90;;;;;;4985177;28;20030;-59
2021/12/03 21:25:56;;;;;;;28.40;20.08;;;3.90;99.90;;;;;;5006496;28;20036;-60
2021/12/03 21:31:01;;;;;;;27.13;18.00;;;3.90;99.90;;;;;;4984892;28;20047;-59
2021/12/03 21:41:25;;;;;;;22.23;16.52;;;3.90;99.90;;;;;;4989462;28;20049;-59
2021/12/03 21:43:58;;;;;;;24.88;19.10;;;4.00;99.90;;;;;;4987444;28;20555;-59
2021/12/03 21:46:26;;;;;;;23.58;17.23;;;4.00;99.90;;;;;;4988707;28;20041;-60
2021/12/03 21:48:53;;;;;;;30.42;20.02;;;4.00;99.90;;;;;;4988571;28;20040;-60